createdAt,value
2019-04-07T04:42:42.399Z,6.00
2019-04-07T04:45:11.802Z,5.20
2019-04-07T04:47:41.066Z,5.57
2019-04-07T04:50:12.781Z,5.47
2019-04-07T04:52:42.805Z,4.97
2019-04-07T04:55:13.161Z,5.20
2019-04-07T04:57:42.800Z,5.20
2019-04-07T05:00:13.507Z,5.33
2019-04-07T05:02:44.179Z,5.40
2019-04-07T05:05:14.479Z,5.30
2019-04-07T05:07:54.118Z,5.40
2019-04-07T05:10:14.831Z,5.43
2019-04-07T05:12:47.243Z,5.90
2019-04-07T05:15:17.482Z,5.90
2019-04-07T05:17:47.178Z,5.70
2019-04-07T05:20:18.646Z,5.57
2019-04-07T05:22:48.705Z,5.30
2019-04-07T05:25:18.534Z,5.80
2019-04-07T05:27:48.282Z,5.93
2019-04-07T05:30:21.463Z,5.53
2019-04-07T05:32:50.648Z,5.40
2019-04-07T05:35:19.836Z,5.57
2019-04-07T05:38:00.130Z,4.77
2019-04-07T05:40:22.004Z,4.90
2019-04-07T05:42:57.543Z,5.27
2019-04-07T05:45:27.055Z,4.10
2019-04-07T05:47:58.031Z,4.40
2019-04-07T05:50:30.755Z,4.10
2019-04-07T05:53:00.476Z,3.97
2019-04-07T05:55:30.468Z,4.27
2019-04-07T05:58:03.403Z,4.30
2019-04-07T06:00:32.322Z,4.17
2019-04-07T06:03:08.063Z,4.20
2019-04-07T06:05:36.910Z,4.20
2019-04-07T06:08:21.257Z,4.50
2019-04-07T06:10:38.661Z,4.40
2019-04-07T06:13:11.823Z,4.60
2019-04-07T06:15:41.998Z,4.17
2019-04-07T06:18:15.420Z,4.20
2019-04-07T06:20:49.829Z,4.07
2019-04-07T06:23:22.096Z,3.67
2019-04-07T06:25:50.125Z,4.40
2019-04-07T06:28:19.471Z,3.80
2019-04-07T06:30:48.634Z,3.90
2019-04-07T06:33:18.217Z,3.60
2019-04-07T06:35:47.746Z,4.03
2019-04-07T06:38:17.731Z,4.27
2019-04-07T06:40:47.984Z,3.97
2019-04-07T06:43:18.652Z,3.90
2019-04-07T06:45:55.089Z,3.60
2019-04-07T06:48:26.712Z,3.60
2019-04-07T06:51:18.899Z,3.60
2019-04-07T06:54:07.327Z,3.73
2019-04-07T06:56:56.526Z,3.60
2019-04-07T06:59:34.478Z,3.53
2019-04-07T07:02:19.646Z,3.43
2019-04-07T07:05:08.529Z,3.80
2019-04-07T07:07:57.322Z,3.90
2019-04-07T07:10:44.408Z,3.60
2019-04-07T07:13:33.739Z,3.70
2019-04-07T07:16:11.452Z,3.90
2019-04-07T07:19:01.025Z,4.03
2019-04-07T07:21:46.814Z,3.73
2019-04-07T07:24:21.462Z,3.47
2019-04-07T07:26:47.811Z,3.47
2019-04-07T07:29:18.130Z,4.30
2019-04-07T07:31:48.315Z,3.90
2019-04-07T07:34:18.746Z,4.10
2019-04-07T07:36:52.280Z,3.80
2019-04-07T07:39:22.802Z,3.50
2019-04-07T07:41:51.963Z,3.90
2019-04-07T07:44:24.369Z,3.90
2019-04-07T07:46:53.960Z,4.50
2019-04-07T07:49:23.307Z,3.97
2019-04-07T07:51:52.745Z,4.27
2019-04-07T07:54:22.963Z,4.10
2019-04-07T07:56:52.540Z,4.37
2019-04-07T07:59:22.542Z,4.03
2019-04-07T08:01:53.449Z,4.30
2019-04-07T08:04:24.982Z,4.20
2019-04-07T08:06:54.409Z,4.53
2019-04-07T08:09:25.916Z,4.30
2019-04-07T08:11:55.348Z,4.20
2019-04-07T08:14:24.691Z,4.13
2019-04-07T08:16:55.457Z,3.90
2019-04-07T08:19:29.202Z,4.10
2019-04-07T08:21:58.436Z,4.00
2019-04-07T08:24:28.263Z,4.10
2019-04-07T08:26:59.029Z,4.80
2019-04-07T08:29:29.111Z,4.10
2019-04-07T08:32:06.586Z,3.87
2019-04-07T08:34:36.238Z,4.50
2019-04-07T08:37:05.985Z,4.00
2019-04-07T08:39:37.452Z,4.23
2019-04-07T08:42:10.672Z,3.90
2019-04-07T08:44:38.357Z,4.27
2019-04-07T08:47:18.858Z,4.17
2019-04-07T08:49:43.792Z,4.10
2019-04-07T08:52:16.225Z,4.20
2019-04-07T08:54:50.337Z,4.10
2019-04-07T08:57:18.689Z,4.07
2019-04-07T08:59:49.443Z,4.10
2019-04-07T09:02:24.469Z,4.17
2019-04-07T09:04:52.490Z,3.70
2019-04-07T09:07:24.319Z,4.03
2019-04-07T09:09:53.152Z,4.63
2019-04-07T09:12:26.352Z,4.43
2019-04-07T09:14:53.219Z,4.00
2019-04-07T09:17:38.574Z,4.77
2019-04-07T09:20:12.156Z,4.63
2019-04-07T09:22:56.684Z,4.43
2019-04-07T09:25:39.986Z,4.60
2019-04-07T09:28:15.306Z,4.70
2019-04-07T09:31:05.217Z,5.20
2019-04-07T09:34:09.152Z,5.20
2019-04-07T09:37:17.789Z,5.00
2019-04-07T09:40:12.888Z,5.30
2019-04-07T09:43:01.298Z,5.43
2019-04-07T09:45:49.076Z,5.40
2019-04-07T09:48:33.434Z,5.10
2019-04-07T09:51:20.717Z,5.73
2019-04-07T09:54:12.223Z,5.33
2019-04-07T09:57:07.408Z,5.87
2019-04-07T10:00:14.497Z,5.90
2019-04-07T10:03:07.206Z,5.80
2019-04-07T10:05:58.667Z,6.10
2019-04-07T10:08:47.691Z,6.03
2019-04-07T10:11:34.910Z,5.73
2019-04-07T10:14:11.552Z,6.10
2019-04-07T10:17:06.497Z,6.33
2019-04-07T10:19:55.043Z,6.37
2019-04-07T10:22:44.536Z,6.10
2019-04-07T10:25:35.731Z,5.90
2019-04-07T10:28:33.435Z,6.00
2019-04-07T10:31:12.614Z,6.30
2019-04-07T10:33:59.814Z,6.57
2019-04-07T10:36:45.023Z,6.83
2019-04-07T10:39:32.138Z,6.70
2019-04-07T10:42:18.044Z,6.57
2019-04-07T10:45:12.599Z,7.23
2019-04-07T10:48:20.528Z,7.00
2019-04-07T10:51:08.117Z,7.33
2019-04-07T10:53:47.264Z,7.00
2019-04-07T10:56:34.358Z,7.60
2019-04-07T10:59:40.752Z,6.93
2019-04-07T11:02:38.185Z,7.53
2019-04-07T11:05:41.083Z,7.50
2019-04-07T11:08:26.943Z,7.43
2019-04-07T11:11:18.071Z,7.57
2019-04-07T11:14:05.738Z,7.83
2019-04-07T11:17:00.238Z,8.20
2019-04-07T11:19:50.070Z,8.10
2019-04-07T11:22:37.282Z,8.30
2019-04-07T11:25:49.360Z,8.80
2019-04-07T11:28:35.874Z,8.57
2019-04-07T11:31:24.274Z,8.73
2019-04-07T11:34:01.638Z,8.70
2019-04-07T11:36:52.863Z,9.30
2019-04-07T11:39:42.480Z,9.40
2019-04-07T11:42:35.042Z,9.43
2019-04-07T11:45:22.537Z,10.87
2019-04-07T11:48:10.031Z,13.80
2019-04-07T11:51:02.065Z,12.00
2019-04-07T11:53:39.610Z,11.00
2019-04-07T11:56:30.787Z,9.97
2019-04-07T11:59:28.820Z,10.23
2019-04-07T12:02:33.090Z,10.73
2019-04-07T12:05:36.630Z,10.67
2019-04-07T12:08:24.526Z,10.73
2019-04-07T12:11:09.713Z,10.40
2019-04-07T12:13:46.767Z,10.80
2019-04-07T12:16:41.336Z,10.13
2019-04-07T12:19:32.080Z,10.43
2019-04-07T12:22:39.281Z,9.73
2019-04-07T12:25:33.499Z,11.80
2019-04-07T12:28:14.625Z,10.60
2019-04-07T12:31:12.555Z,10.60
2019-04-07T12:33:49.021Z,10.73
2019-04-07T12:36:39.842Z,11.20
2019-04-07T12:39:22.865Z,11.10
2019-04-07T12:42:16.731Z,12.37
2019-04-07T12:45:12.399Z,11.87
2019-04-07T12:48:04.663Z,11.37
2019-04-07T12:50:54.050Z,12.10
2019-04-07T12:53:36.107Z,12.30
2019-04-07T12:56:31.740Z,13.20
2019-04-07T12:59:16.885Z,12.10
2019-04-07T13:02:11.447Z,12.00
2019-04-07T13:05:02.939Z,12.73
2019-04-07T13:07:41.976Z,12.30
2019-04-07T13:10:30.244Z,11.73
2019-04-07T13:13:24.328Z,12.17
2019-04-07T13:16:30.505Z,11.13
2019-04-07T13:19:25.305Z,12.10
2019-04-07T13:22:13.355Z,12.57
2019-04-07T13:25:08.859Z,11.30
2019-04-07T13:27:46.795Z,11.40
2019-04-07T13:30:27.100Z,11.63
2019-04-07T13:33:33.921Z,12.40
2019-04-07T13:36:26.772Z,11.30
2019-04-07T13:39:15.943Z,11.80
2019-04-07T13:42:02.200Z,12.13
2019-04-07T13:44:51.541Z,12.50
2019-04-07T13:47:42.547Z,12.37
2019-04-07T13:50:19.476Z,12.10
2019-04-07T13:53:02.936Z,11.90
2019-04-07T13:56:00.721Z,12.80
2019-04-07T13:58:49.388Z,12.17
2019-04-07T14:01:24.353Z,11.40
2019-04-07T14:04:06.837Z,10.73
2019-04-07T14:07:04.578Z,10.37
2019-04-07T14:09:56.062Z,10.17
2019-04-07T14:12:43.124Z,10.73
2019-04-07T14:15:19.421Z,11.33
2019-04-07T14:17:58.744Z,10.53
2019-04-07T14:20:45.877Z,10.17
2019-04-07T14:23:27.578Z,10.10
2019-04-07T14:26:25.800Z,10.20
2019-04-07T14:29:28.401Z,10.53
2019-04-07T14:32:23.197Z,11.03
2019-04-07T14:35:10.499Z,10.97
2019-04-07T14:38:04.848Z,10.60
2019-04-07T14:40:56.425Z,9.70
2019-04-07T14:43:36.327Z,10.13
2019-04-07T14:46:33.862Z,10.60
2019-04-07T14:49:17.292Z,10.63
2019-04-07T14:52:06.771Z,10.90
2019-04-07T14:55:04.819Z,10.67
2019-04-07T14:58:07.781Z,13.10
2019-04-07T15:01:08.046Z,11.17
2019-04-07T15:03:36.858Z,10.83
2019-04-07T15:06:08.729Z,10.23
2019-04-07T15:08:52.417Z,10.23
2019-04-07T15:11:41.184Z,10.30
2019-04-07T15:14:15.241Z,9.67
2019-04-07T15:16:45.035Z,11.40
2019-04-07T15:19:14.648Z,10.57
2019-04-07T15:21:44.161Z,9.83
2019-04-07T15:24:13.886Z,9.87
2019-04-07T15:26:46.960Z,10.47
2019-04-07T15:29:14.680Z,10.03
2019-04-07T15:31:44.221Z,10.13
2019-04-07T15:34:14.384Z,9.80
2019-04-07T15:36:48.039Z,9.93
2019-04-07T15:39:16.223Z,9.77
2019-04-07T15:41:47.758Z,10.37
2019-04-07T15:44:17.966Z,10.40
2019-04-07T15:46:51.575Z,9.97
2019-04-07T15:49:19.252Z,10.17
2019-04-07T15:51:48.769Z,10.47
2019-04-07T15:54:23.976Z,10.63
2019-04-07T15:56:59.131Z,10.17
2019-04-07T15:59:29.805Z,10.00
2019-04-07T16:01:59.846Z,9.63
2019-04-07T16:04:30.459Z,8.97
2019-04-07T16:07:00.225Z,9.33
2019-04-07T16:09:40.337Z,9.47
2019-04-07T16:12:06.489Z,10.10
2019-04-07T16:14:36.375Z,9.43
2019-04-07T16:17:09.273Z,9.07
2019-04-07T16:19:42.267Z,9.30
2019-04-07T16:22:12.637Z,9.17
2019-04-07T16:24:40.510Z,8.97
2019-04-07T16:27:11.447Z,8.70
2019-04-07T16:29:40.999Z,8.63
2019-04-07T16:32:11.370Z,9.20
2019-04-07T16:34:42.801Z,8.20
2019-04-07T16:37:12.634Z,8.87
2019-04-07T16:39:42.607Z,8.97
2019-04-07T16:42:14.064Z,8.80
2019-04-07T16:44:46.086Z,9.23
2019-04-07T16:47:21.693Z,9.63
2019-04-07T16:49:48.820Z,9.17
2019-04-07T16:52:17.373Z,9.40
2019-04-07T16:54:54.810Z,9.13
2019-04-07T16:57:28.263Z,9.53
2019-04-07T16:59:56.322Z,9.27
2019-04-07T17:02:25.748Z,9.30
2019-04-07T17:04:56.832Z,9.50
2019-04-07T17:07:26.775Z,10.00
2019-04-07T17:09:57.471Z,9.87
2019-04-07T17:12:27.259Z,8.77
2019-04-07T17:14:56.707Z,9.40
2019-04-07T17:17:26.001Z,8.50
2019-04-07T17:19:57.381Z,9.07
2019-04-07T17:22:33.720Z,9.60
2019-04-07T17:25:09.509Z,8.97
2019-04-07T17:27:40.935Z,8.40
2019-04-07T17:30:13.653Z,8.53
2019-04-07T17:32:43.480Z,8.43
2019-04-07T17:35:18.596Z,8.37
2019-04-07T17:37:49.513Z,8.43
2019-04-07T17:40:21.394Z,8.60
2019-04-07T17:42:53.019Z,9.20
2019-04-07T17:45:40.717Z,8.93
2019-04-07T17:48:37.404Z,10.53
2019-04-07T17:51:18.626Z,9.50
2019-04-07T17:54:10.189Z,9.97
2019-04-07T17:57:01.196Z,10.53
2019-04-07T17:59:44.942Z,9.80
2019-04-07T18:03:04.550Z,10.80
2019-04-07T18:05:51.865Z,10.60
2019-04-07T18:08:41.745Z,11.57
2019-04-07T18:11:21.016Z,11.63
2019-04-07T18:14:10.395Z,12.50
2019-04-07T18:17:06.505Z,11.67
2019-04-07T18:20:06.561Z,11.33
2019-04-07T18:22:54.462Z,11.47
2019-04-07T18:25:51.843Z,11.20
2019-04-07T18:28:30.524Z,10.60
2019-04-07T18:31:16.083Z,10.07
2019-04-07T18:34:05.779Z,10.50
2019-04-07T18:36:54.165Z,10.53
2019-04-07T18:39:51.501Z,10.33
2019-04-07T18:42:33.080Z,9.93
2019-04-07T18:45:12.187Z,10.47
2019-04-07T18:47:55.907Z,9.97
2019-04-07T18:50:43.301Z,10.53
2019-04-07T18:53:26.220Z,10.70
2019-04-07T18:56:18.871Z,10.07
2019-04-07T18:58:59.451Z,10.90
2019-04-07T19:01:46.914Z,10.03
2019-04-07T19:04:38.319Z,10.50
2019-04-07T19:07:16.054Z,10.47
2019-04-07T19:10:16.586Z,10.37
2019-04-07T19:13:07.791Z,10.53
2019-04-07T19:15:57.877Z,10.10
2019-04-07T19:18:58.665Z,11.33
2019-04-07T19:21:38.802Z,10.93
2019-04-07T19:24:19.806Z,11.00
2019-04-07T19:27:21.276Z,11.37
2019-04-07T19:30:06.582Z,11.07
2019-04-07T19:32:54.164Z,11.00
2019-04-07T19:35:59.322Z,11.33
2019-04-07T19:38:37.841Z,11.00
2019-04-07T19:41:32.859Z,11.53
2019-04-07T19:44:34.839Z,12.10
2019-04-07T19:47:14.211Z,12.93
2019-04-07T19:50:12.509Z,12.40
2019-04-07T19:53:16.082Z,11.63
2019-04-07T19:56:07.278Z,12.43
2019-04-07T19:58:55.574Z,12.20
2019-04-07T20:01:44.410Z,12.20
2019-04-07T20:04:35.212Z,12.10
2019-04-07T20:07:28.623Z,11.47
2019-04-07T20:10:25.365Z,12.10
2019-04-07T20:13:11.128Z,12.23
2019-04-07T20:15:51.375Z,11.30
2019-04-07T20:18:54.697Z,10.77
2019-04-07T20:21:53.970Z,11.70
2019-04-07T20:24:42.733Z,10.47
2019-04-07T20:27:36.837Z,10.77
2019-04-07T20:30:32.204Z,10.77
2019-04-07T20:33:13.226Z,9.37
2019-04-07T20:35:53.753Z,9.30
2019-04-07T20:38:46.414Z,10.17
2019-04-07T20:41:43.052Z,9.67
2019-04-07T20:44:26.606Z,9.87
2019-04-07T20:47:12.186Z,9.53
2019-04-07T20:50:11.917Z,9.80
2019-04-07T20:53:09.973Z,10.53
2019-04-07T20:55:45.686Z,10.20
2019-04-07T20:58:42.656Z,10.27
2019-04-07T21:01:36.634Z,9.27
2019-04-07T21:04:26.403Z,10.07
2019-04-07T21:07:13.511Z,9.60
2019-04-07T21:09:57.421Z,10.77
2019-04-07T21:12:48.295Z,10.50
2019-04-07T21:15:50.722Z,10.10
2019-04-07T21:18:39.130Z,10.53
2019-04-07T21:21:26.231Z,10.07
2019-04-07T21:24:19.836Z,10.23
2019-04-07T21:27:01.659Z,10.73
2019-04-07T21:29:43.392Z,10.23
2019-04-07T21:32:33.264Z,11.03
2019-04-07T21:35:12.941Z,10.67
2019-04-07T21:38:00.436Z,11.00
2019-04-07T21:40:45.859Z,11.27
2019-04-07T21:43:28.461Z,11.27
2019-04-07T21:46:21.078Z,11.23
2019-04-07T21:49:02.973Z,10.20
2019-04-07T21:52:02.538Z,9.80
2019-04-07T21:54:48.257Z,10.03
2019-04-07T21:57:38.531Z,10.73
